CheckWX is a tool to help pilots better visualize weather data.  It is not intended as a substitute for an official pre-flight weather briefing.

21:02:43 UTC

KLYV METAR
Quentin Aanenson Field Airport
Luverne, Minnesota, USA
Current

8 mins ago

KLYV 232055Z AUTO 31006KT 10SM SCT031 SCT037 OVC044 15/07 A3013 RMK AO2
Observed
May-23 @ 20:55 UTC
Wind
  • 310° at 6 KTS
Visibility
10 SM
Flight Rules
VFR
Cloud Levels
  • Scattered at 3,100' AGL
  • Scattered at 3,700' AGL
  • Overcast at 4,400' AGL
Temperature
15°C / 59°F
Dewpoint
C / 45°F
Humidity
59%
Altimeter
30.13" Hg
Pressure
1020.32 hPa
Previous

28 mins ago

KLYV 232035Z AUTO 30008KT 10SM SCT035 OVC044 15/07 A3013 RMK AO2
Observed
May-23 @ 20:35 UTC
Wind
  • 300° at 8 KTS
Visibility
10 SM
Flight Rules
VFR
Cloud Levels
  • Scattered at 3,500' AGL
  • Overcast at 4,400' AGL
Temperature
15°C / 59°F
Dewpoint
C / 45°F
Humidity
59%
Altimeter
30.13" Hg
Pressure
1020.32 hPa
Previous

2 hours ago

KLYV 231916Z AUTO 32007KT 10SM BKN030 OVC043 14/06 A3012 RMK AO2
Observed
May-23 @ 19:16 UTC
Wind
  • 320° at 7 KTS
Visibility
10 SM
Flight Rules
MVFR
Cloud Levels
  • Broken at 3,000' AGL
  • Overcast at 4,300' AGL
Temperature
14°C / 57°F
Dewpoint
C / 43°F
Humidity
59%
Altimeter
30.12" Hg
Pressure
1020.02 hPa